createdAt,value
2022-10-16T00:00:29.760Z,13.45
2022-10-16T00:02:31.687Z,13.43
2022-10-16T00:04:33.618Z,13.44
2022-10-16T00:06:35.580Z,13.47
2022-10-16T00:08:38.755Z,13.50
2022-10-16T00:10:42.033Z,13.50
2022-10-16T00:12:45.922Z,13.52
2022-10-16T00:14:47.783Z,13.52
2022-10-16T00:16:49.671Z,13.51
2022-10-16T00:18:52.461Z,13.48
2022-10-16T00:23:01.308Z,13.48
2022-10-16T00:25:03.179Z,13.43
2022-10-16T00:27:05.042Z,13.55
2022-10-16T00:29:07.690Z,13.51
2022-10-16T00:31:12.656Z,13.53
2022-10-16T00:33:14.556Z,13.70
2022-10-16T00:35:16.434Z,13.66
2022-10-16T00:37:18.248Z,13.68
2022-10-16T00:39:21.203Z,13.65
2022-10-16T00:41:25.064Z,13.68
2022-10-16T00:43:52.201Z,13.67
2022-10-16T00:45:54.199Z,13.71
2022-10-16T00:47:57.914Z,13.74
2022-10-16T00:50:07.738Z,13.73
2022-10-16T00:52:11.200Z,13.79
2022-10-16T00:54:20.578Z,13.78
2022-10-16T00:56:22.448Z,13.77
2022-10-16T00:58:25.801Z,13.69
2022-10-16T01:00:28.137Z,13.70
2022-10-16T01:02:29.975Z,13.78
2022-10-16T01:04:49.136Z,13.80
2022-10-16T01:07:25.646Z,13.79
2022-10-16T01:09:45.456Z,13.71
2022-10-16T01:12:11.776Z,13.74
2022-10-16T01:14:38.365Z,13.75
2022-10-16T01:17:03.943Z,13.77
2022-10-16T01:19:05.712Z,13.68
2022-10-16T01:21:11.064Z,13.77
2022-10-16T01:23:36.482Z,13.73
2022-10-16T01:25:59.117Z,13.76
2022-10-16T01:28:10.558Z,13.72
2022-10-16T01:30:15.281Z,13.78
2022-10-16T01:32:28.899Z,13.76
2022-10-16T01:34:39.924Z,13.69
2022-10-16T01:36:49.472Z,13.73
2022-10-16T01:38:55.850Z,13.71
2022-10-16T01:41:05.876Z,13.68
2022-10-16T01:43:15.398Z,13.64
2022-10-16T01:45:23.459Z,13.67
2022-10-16T01:47:28.251Z,13.65
2022-10-16T01:49:35.127Z,13.64
2022-10-16T01:51:38.307Z,13.66
2022-10-16T01:53:45.186Z,13.65
2022-10-16T01:55:49.876Z,13.68
2022-10-16T01:57:54.860Z,13.65
2022-10-16T02:00:02.054Z,13.67
2022-10-16T02:02:09.093Z,13.61
2022-10-16T02:04:43.803Z,13.64
2022-10-16T02:06:45.816Z,13.65
2022-10-16T02:08:48.089Z,13.63
2022-10-16T02:10:49.916Z,13.57
2022-10-16T02:13:24.113Z,13.58
2022-10-16T02:15:28.123Z,13.56
2022-10-16T02:17:34.237Z,13.58
2022-10-16T02:19:36.131Z,13.52
2022-10-16T02:21:59.217Z,13.53
2022-10-16T02:24:13.207Z,13.48
2022-10-16T02:26:25.938Z,13.48
2022-10-16T02:28:38.876Z,13.43
2022-10-16T02:30:49.314Z,13.43
2022-10-16T02:32:53.764Z,13.48
2022-10-16T02:34:56.603Z,13.44
2022-10-16T02:36:59.878Z,13.46
2022-10-16T02:39:02.698Z,13.43
2022-10-16T02:41:07.350Z,13.42
2022-10-16T02:43:10.200Z,13.37
2022-10-16T02:45:12.730Z,13.42
2022-10-16T02:47:14.732Z,13.44
2022-10-16T02:49:16.735Z,13.47
2022-10-16T02:51:18.648Z,13.40
2022-10-16T02:53:20.504Z,13.44
2022-10-16T02:55:22.407Z,13.44
2022-10-16T02:57:25.628Z,13.42
2022-10-16T02:59:27.800Z,13.40
2022-10-16T03:01:29.745Z,13.37
2022-10-16T03:03:31.625Z,13.39
2022-10-16T03:05:33.445Z,13.43
2022-10-16T03:07:35.345Z,13.39
2022-10-16T03:09:38.287Z,13.44
2022-10-16T03:11:40.196Z,13.36
2022-10-16T03:13:48.899Z,13.37
2022-10-16T03:15:51.859Z,13.41
2022-10-16T03:17:53.665Z,13.36
2022-10-16T03:19:57.515Z,13.35
2022-10-16T03:22:00.336Z,13.32
2022-10-16T03:24:03.256Z,13.33
2022-10-16T03:26:05.176Z,13.26
2022-10-16T03:28:07.164Z,13.22
2022-10-16T03:30:09.963Z,13.27
2022-10-16T03:32:11.923Z,13.27
2022-10-16T03:34:13.762Z,13.25
2022-10-16T03:36:17.581Z,13.21
2022-10-16T03:38:19.363Z,13.13
2022-10-16T03:40:22.203Z,13.05
2022-10-16T03:42:24.025Z,13.02
2022-10-16T03:44:25.895Z,12.90
2022-10-16T03:46:28.270Z,12.87
2022-10-16T03:48:31.141Z,12.81
2022-10-16T03:50:33.088Z,12.77
2022-10-16T03:52:34.976Z,12.87
2022-10-16T03:54:36.887Z,12.81
2022-10-16T03:56:38.889Z,12.85
2022-10-16T03:58:40.802Z,12.73
2022-10-16T04:00:44.070Z,12.71
2022-10-16T04:04:49.680Z,12.72
2022-10-16T04:06:52.793Z,12.80
2022-10-16T04:08:57.382Z,12.82
2022-10-16T04:10:59.202Z,12.85
2022-10-16T04:13:00.985Z,12.76
2022-10-16T04:15:03.027Z,12.76
2022-10-16T04:17:06.023Z,12.71
2022-10-16T04:19:08.892Z,12.69
2022-10-16T04:21:10.863Z,12.59
2022-10-16T04:23:13.642Z,12.55
2022-10-16T04:25:15.557Z,12.54
2022-10-16T04:27:23.463Z,12.42
2022-10-16T04:29:25.636Z,12.36
2022-10-16T04:31:30.440Z,12.30
2022-10-16T04:33:32.300Z,12.19
2022-10-16T04:35:34.151Z,12.10
2022-10-16T04:37:36.065Z,12.00
2022-10-16T04:39:37.961Z,12.07
2022-10-16T04:41:40.904Z,12.06
2022-10-16T04:43:43.707Z,11.97
2022-10-16T04:45:47.608Z,11.90
2022-10-16T04:47:50.502Z,11.91
2022-10-16T04:49:52.318Z,11.80
2022-10-16T04:51:55.284Z,11.74
2022-10-16T04:53:57.340Z,11.74
2022-10-16T04:55:59.212Z,11.61
2022-10-16T04:58:02.132Z,11.61
2022-10-16T05:00:04.858Z,11.66
2022-10-16T05:02:07.026Z,11.51
2022-10-16T05:04:09.175Z,11.52
2022-10-16T05:06:11.146Z,11.54
2022-10-16T05:08:15.660Z,11.47
2022-10-16T05:10:18.396Z,11.52
2022-10-16T05:12:20.295Z,11.52
2022-10-16T05:14:23.186Z,11.45
2022-10-16T05:16:25.018Z,11.45
2022-10-16T05:18:26.945Z,11.44
2022-10-16T05:20:29.950Z,11.42
2022-10-16T05:22:31.862Z,11.38
2022-10-16T05:24:35.805Z,11.51
2022-10-16T05:26:37.652Z,11.44
2022-10-16T05:28:39.586Z,11.39
2022-10-16T05:30:41.510Z,11.48
2022-10-16T05:32:43.402Z,11.44
2022-10-16T05:34:45.779Z,11.45
2022-10-16T05:36:47.776Z,11.42
2022-10-16T05:38:51.873Z,11.44
2022-10-16T05:40:54.786Z,11.47
2022-10-16T05:42:57.788Z,11.57
2022-10-16T05:44:59.769Z,11.70
2022-10-16T05:47:01.861Z,11.81
2022-10-16T05:49:04.160Z,11.95
2022-10-16T05:51:08.525Z,12.01
2022-10-16T05:53:10.548Z,11.99
2022-10-16T05:55:12.498Z,11.99
2022-10-16T05:57:14.503Z,12.08
2022-10-16T05:59:16.573Z,12.18
2022-10-16T06:01:20.269Z,12.31
2022-10-16T06:03:47.883Z,12.36
2022-10-16T06:06:22.154Z,12.50
2022-10-16T06:15:38.143Z,13.13
2022-10-16T06:18:03.458Z,13.16
2022-10-16T06:20:09.996Z,13.27
2022-10-16T06:22:11.920Z,13.43
2022-10-16T06:24:40.989Z,13.57
2022-10-16T06:26:42.857Z,13.61
2022-10-16T06:28:44.857Z,13.77
2022-10-16T06:30:46.941Z,13.79
2022-10-16T06:32:50.956Z,13.63
2022-10-16T06:34:52.856Z,13.51
2022-10-16T06:36:54.755Z,13.40
2022-10-16T06:38:56.871Z,13.27
2022-10-16T06:40:59.375Z,13.29
2022-10-16T06:43:01.217Z,13.28
2022-10-16T06:45:03.279Z,13.27
2022-10-16T06:47:05.124Z,13.29
2022-10-16T06:49:08.038Z,13.29
2022-10-16T06:51:19.179Z,13.34
2022-10-16T06:53:20.985Z,13.34
2022-10-16T06:55:22.952Z,13.32
2022-10-16T06:57:24.862Z,13.33
2022-10-16T06:59:26.919Z,13.37
2022-10-16T07:01:29.677Z,13.29
2022-10-16T07:03:31.720Z,13.25
2022-10-16T07:05:38.146Z,13.21
2022-10-16T07:07:40.967Z,13.20
2022-10-16T07:09:42.885Z,13.14
2022-10-16T07:11:44.895Z,13.15
2022-10-16T07:13:51.047Z,13.12
2022-10-16T07:15:57.639Z,13.11
2022-10-16T07:17:59.445Z,13.14
2022-10-16T07:20:03.097Z,13.16
2022-10-16T07:22:06.096Z,13.21
2022-10-16T07:24:12.869Z,13.26
2022-10-16T07:26:16.756Z,13.71
2022-10-16T07:28:18.945Z,14.26
2022-10-16T07:30:22.424Z,15.02
2022-10-16T07:32:27.140Z,15.55
2022-10-16T07:34:38.455Z,15.64
2022-10-16T07:38:55.639Z,16.63
2022-10-16T07:41:07.197Z,16.55
2022-10-16T07:43:16.441Z,17.04
2022-10-16T07:45:21.578Z,16.80
2022-10-16T07:47:25.211Z,17.03
2022-10-16T07:49:28.408Z,17.40
2022-10-16T07:51:30.935Z,17.48
2022-10-16T07:53:35.044Z,17.98
2022-10-16T07:55:44.446Z,17.96
2022-10-16T07:57:46.393Z,17.87
2022-10-16T07:59:48.419Z,17.79
2022-10-16T08:01:52.840Z,17.86
2022-10-16T08:03:56.266Z,18.24
2022-10-16T08:06:01.506Z,18.19
2022-10-16T08:08:04.774Z,18.32
2022-10-16T08:10:18.418Z,18.63
2022-10-16T08:12:20.453Z,18.62
2022-10-16T08:14:24.506Z,18.57
2022-10-16T08:16:26.393Z,18.45
2022-10-16T08:18:28.342Z,17.98
2022-10-16T08:20:33.840Z,17.92
2022-10-16T08:22:35.852Z,18.37
2022-10-16T08:24:38.201Z,18.42
2022-10-16T08:26:45.931Z,18.50
2022-10-16T08:28:51.889Z,18.24
2022-10-16T08:30:53.944Z,18.15
2022-10-16T08:32:59.292Z,18.06
2022-10-16T08:35:02.245Z,18.06
2022-10-16T08:37:04.081Z,18.13
2022-10-16T08:39:06.241Z,18.00
2022-10-16T08:41:37.440Z,18.16
2022-10-16T08:44:06.429Z,18.19
2022-10-16T08:46:38.145Z,18.00
2022-10-16T08:49:00.164Z,17.78
2022-10-16T08:51:07.174Z,17.77
2022-10-16T08:53:18.993Z,17.88
2022-10-16T08:55:39.638Z,17.95
2022-10-16T08:57:41.564Z,17.98
2022-10-16T08:59:43.507Z,17.86
2022-10-16T09:01:51.053Z,17.77
2022-10-16T09:04:38.921Z,17.61
2022-10-16T09:07:04.423Z,17.50
2022-10-16T09:09:28.857Z,17.50
2022-10-16T09:11:48.989Z,17.76
2022-10-16T09:13:59.887Z,17.94
2022-10-16T09:16:10.967Z,18.01
2022-10-16T09:18:32.890Z,18.33
2022-10-16T09:20:43.976Z,18.22
2022-10-16T09:22:47.269Z,18.17
2022-10-16T09:24:49.555Z,18.22
2022-10-16T09:26:51.766Z,18.11
2022-10-16T09:28:54.792Z,18.01
2022-10-16T09:30:58.048Z,17.94
2022-10-16T09:33:00.564Z,17.94
2022-10-16T09:35:04.723Z,17.84
2022-10-16T09:37:13.631Z,17.81
2022-10-16T09:39:16.614Z,17.73
2022-10-16T09:41:22.174Z,17.78
2022-10-16T09:43:43.062Z,17.99
2022-10-16T09:46:05.768Z,17.72
2022-10-16T09:48:13.638Z,17.99
2022-10-16T09:50:30.083Z,18.40
2022-10-16T09:52:32.355Z,18.67
2022-10-16T09:54:34.812Z,18.76
2022-10-16T09:56:40.322Z,18.82
2022-10-16T09:58:52.149Z,18.72
2022-10-16T10:00:57.076Z,18.79
2022-10-16T10:02:59.057Z,18.59
2022-10-16T10:05:01.720Z,18.63
2022-10-16T10:07:05.806Z,18.73
2022-10-16T10:09:49.676Z,18.82
2022-10-16T10:11:57.906Z,19.09
2022-10-16T10:14:16.549Z,19.05
2022-10-16T10:16:28.740Z,18.90
2022-10-16T10:18:33.093Z,18.82
2022-10-16T10:20:39.819Z,18.65
2022-10-16T10:22:46.970Z,18.57
2022-10-16T10:25:01.900Z,18.34
2022-10-16T10:27:17.988Z,18.21
2022-10-16T10:29:26.975Z,18.27
2022-10-16T10:31:45.995Z,18.24
2022-10-16T10:34:10.308Z,18.24
2022-10-16T10:36:30.301Z,18.09
2022-10-16T10:38:36.619Z,17.96
2022-10-16T10:40:52.358Z,18.00
2022-10-16T10:43:25.877Z,18.02
2022-10-16T10:45:37.541Z,18.18
2022-10-16T10:47:58.114Z,18.28
2022-10-16T10:50:24.664Z,18.42
2022-10-16T10:52:36.404Z,18.25
2022-10-16T10:55:00.770Z,18.29
2022-10-16T10:57:19.884Z,18.19
2022-10-16T10:59:50.157Z,18.20
2022-10-16T11:02:03.022Z,18.34
2022-10-16T11:04:18.021Z,18.43
2022-10-16T11:06:25.849Z,18.43
2022-10-16T11:08:37.323Z,18.42
2022-10-16T11:10:53.440Z,18.52
2022-10-16T11:13:27.988Z,18.55
2022-10-16T11:15:34.485Z,18.60
2022-10-16T11:17:49.301Z,18.57
2022-10-16T11:19:56.121Z,18.60
2022-10-16T11:22:21.293Z,18.59
2022-10-16T11:25:00.949Z,18.54
2022-10-16T11:27:09.148Z,18.47
2022-10-16T11:29:23.225Z,18.45
2022-10-16T11:31:39.730Z,18.47
2022-10-16T11:33:50.863Z,18.45
2022-10-16T11:36:02.844Z,18.52
2022-10-16T11:38:17.886Z,18.52
2022-10-16T11:40:32.514Z,18.62
2022-10-16T11:42:49.868Z,18.66
2022-10-16T11:45:11.481Z,18.83
2022-10-16T11:49:44.861Z,18.94
2022-10-16T11:54:27.931Z,18.94
2022-10-16T11:56:33.744Z,19.00
2022-10-16T11:59:09.192Z,19.08
2022-10-16T12:01:11.124Z,18.92
2022-10-16T12:03:26.293Z,19.02
2022-10-16T12:05:48.557Z,19.03
2022-10-16T12:08:14.389Z,18.81
2022-10-16T12:10:28.879Z,18.75
2022-10-16T12:12:41.568Z,18.72
2022-10-16T12:15:11.369Z,18.69
2022-10-16T12:17:27.781Z,18.76
2022-10-16T12:19:31.749Z,18.72
2022-10-16T12:21:34.675Z,18.71
2022-10-16T12:23:48.491Z,18.70
2022-10-16T12:25:57.092Z,18.67
2022-10-16T12:28:03.415Z,18.71
2022-10-16T12:30:07.747Z,18.71
2022-10-16T12:32:53.248Z,18.71
2022-10-16T12:34:58.195Z,18.59
2022-10-16T12:37:16.161Z,18.58
2022-10-16T12:39:26.331Z,18.50
2022-10-16T12:41:37.093Z,18.47
2022-10-16T12:43:43.598Z,18.49
2022-10-16T12:45:46.795Z,18.53
2022-10-16T12:47:52.571Z,18.52
2022-10-16T12:49:56.036Z,18.46
2022-10-16T12:52:01.183Z,18.42
2022-10-16T12:54:26.083Z,18.45
2022-10-16T12:57:09.268Z,18.51
2022-10-16T12:59:26.568Z,18.58
2022-10-16T13:01:38.272Z,18.63
2022-10-16T13:04:18.431Z,18.65
2022-10-16T13:06:52.034Z,18.64
2022-10-16T13:09:06.374Z,18.62
2022-10-16T13:11:21.580Z,18.64
2022-10-16T13:13:37.482Z,18.60
2022-10-16T13:15:53.414Z,18.59
2022-10-16T13:18:14.383Z,18.51
2022-10-16T13:20:37.856Z,18.35
2022-10-16T13:23:23.438Z,18.34
2022-10-16T13:25:32.786Z,18.34
2022-10-16T13:27:55.830Z,18.25
2022-10-16T13:30:30.831Z,18.28
2022-10-16T13:32:33.098Z,18.30
2022-10-16T13:34:45.155Z,18.35
2022-10-16T13:36:52.832Z,18.42
2022-10-16T13:39:19.086Z,18.45
2022-10-16T13:41:22.007Z,18.48
2022-10-16T13:43:50.262Z,18.51
2022-10-16T13:45:57.612Z,18.51
2022-10-16T13:48:07.089Z,18.52
2022-10-16T13:50:20.154Z,18.57
2022-10-16T13:52:23.409Z,18.44
2022-10-16T13:54:29.920Z,18.41
2022-10-16T13:56:34.243Z,18.38
2022-10-16T13:58:36.262Z,18.38
2022-10-16T14:02:45.527Z,18.38
2022-10-16T14:04:49.034Z,18.36
2022-10-16T14:06:52.881Z,18.34
2022-10-16T14:09:05.945Z,18.32
2022-10-16T14:11:08.158Z,18.23
2022-10-16T14:13:21.831Z,18.30
2022-10-16T14:15:24.922Z,18.29
2022-10-16T14:17:34.397Z,18.28
2022-10-16T14:19:37.537Z,18.32
2022-10-16T14:21:41.950Z,18.30
2022-10-16T14:23:44.607Z,18.34
2022-10-16T14:25:46.802Z,18.31
2022-10-16T14:28:16.242Z,18.35
2022-10-16T14:30:23.367Z,18.33
2022-10-16T14:32:26.196Z,18.29
2022-10-16T14:34:38.060Z,18.29
2022-10-16T14:36:42.464Z,18.27
2022-10-16T14:38:55.786Z,18.26
2022-10-16T14:41:00.290Z,18.28
2022-10-16T14:43:05.104Z,18.27
2022-10-16T14:45:11.916Z,18.27
2022-10-16T14:47:23.552Z,18.23
2022-10-16T14:49:25.818Z,18.25
2022-10-16T14:51:28.078Z,18.21
2022-10-16T14:53:30.078Z,18.20
2022-10-16T14:55:34.038Z,18.18
2022-10-16T14:57:39.599Z,18.16
2022-10-16T14:59:45.665Z,18.15
2022-10-16T15:01:49.205Z,18.14
2022-10-16T15:03:53.957Z,18.08
2022-10-16T15:05:55.905Z,18.06
2022-10-16T15:07:58.872Z,18.06
2022-10-16T15:10:00.862Z,18.03
2022-10-16T15:12:02.959Z,18.01
2022-10-16T15:14:05.257Z,17.97
2022-10-16T15:16:13.207Z,17.96
2022-10-16T15:18:21.600Z,17.91
2022-10-16T15:20:34.875Z,17.94
2022-10-16T15:22:36.960Z,17.90
2022-10-16T15:24:39.095Z,17.82
2022-10-16T15:26:42.456Z,17.81
2022-10-16T15:28:44.441Z,17.79
2022-10-16T15:30:47.606Z,17.78
2022-10-16T15:32:51.601Z,17.78
2022-10-16T15:34:55.596Z,17.71
2022-10-16T15:36:59.273Z,17.71
2022-10-16T15:39:01.861Z,17.69
2022-10-16T15:41:03.918Z,17.69
2022-10-16T15:43:05.836Z,17.72
2022-10-16T15:45:08.139Z,17.65
2022-10-16T15:47:10.324Z,17.64
2022-10-16T15:49:12.992Z,17.59
2022-10-16T15:51:15.595Z,17.61
2022-10-16T15:53:17.632Z,17.61
2022-10-16T15:55:21.580Z,17.58
2022-10-16T15:57:24.933Z,17.65
2022-10-16T15:59:26.898Z,17.65
2022-10-16T16:01:34.660Z,17.63
2022-10-16T16:03:37.554Z,17.58
2022-10-16T16:05:46.335Z,17.49
2022-10-16T16:07:51.221Z,17.58
2022-10-16T16:09:53.677Z,17.47
2022-10-16T16:11:56.820Z,17.46
2022-10-16T16:13:58.771Z,17.46
2022-10-16T16:16:01.098Z,17.41
2022-10-16T16:20:12.308Z,17.42
2022-10-16T16:22:15.639Z,17.45
2022-10-16T16:24:18.671Z,17.36
2022-10-16T16:26:28.745Z,17.39
2022-10-16T16:28:35.186Z,17.35
2022-10-16T16:30:37.809Z,17.31
2022-10-16T16:32:39.898Z,17.22
2022-10-16T16:34:43.048Z,17.21
2022-10-16T16:36:48.275Z,17.14
2022-10-16T16:38:54.968Z,16.93
2022-10-16T16:41:01.694Z,16.88
2022-10-16T16:43:05.408Z,16.81
2022-10-16T16:45:16.162Z,16.68
2022-10-16T16:47:18.768Z,16.74
2022-10-16T16:49:20.838Z,16.80
2022-10-16T16:51:23.217Z,16.68
2022-10-16T16:53:26.053Z,16.59
2022-10-16T16:55:28.098Z,16.58
2022-10-16T16:57:31.052Z,16.38
2022-10-16T16:59:36.107Z,16.43
2022-10-16T17:01:38.533Z,16.36
2022-10-16T17:03:47.473Z,16.29
2022-10-16T17:06:08.394Z,16.37
2022-10-16T17:08:12.886Z,16.40
2022-10-16T17:10:15.396Z,16.29
2022-10-16T17:12:18.313Z,16.21
2022-10-16T17:14:20.773Z,16.21
2022-10-16T17:16:28.746Z,16.06
2022-10-16T17:18:31.245Z,15.97
2022-10-16T17:20:37.573Z,16.02
2022-10-16T17:22:40.171Z,15.59
2022-10-16T17:24:42.613Z,15.49
2022-10-16T17:26:49.548Z,15.55
2022-10-16T17:28:54.148Z,15.85
2022-10-16T17:30:56.577Z,15.79
2022-10-16T17:33:00.613Z,15.81
2022-10-16T17:35:03.157Z,15.66
2022-10-16T17:37:05.593Z,15.60
2022-10-16T17:39:13.581Z,15.72
2022-10-16T17:41:17.727Z,15.69
2022-10-16T17:43:21.054Z,15.72
2022-10-16T17:45:27.418Z,15.79
2022-10-16T17:47:30.301Z,15.80
2022-10-16T17:49:32.866Z,15.48
2022-10-16T17:51:37.152Z,15.58
2022-10-16T17:53:39.690Z,15.33
2022-10-16T17:55:46.127Z,15.37
2022-10-16T17:57:49.252Z,15.46
2022-10-16T17:59:51.889Z,15.39
2022-10-16T18:01:54.562Z,15.49
2022-10-16T18:04:00.141Z,15.51
2022-10-16T18:06:07.330Z,15.40
2022-10-16T18:08:11.911Z,15.42
2022-10-16T18:10:17.512Z,15.44
2022-10-16T18:12:22.570Z,15.38
2022-10-16T18:14:26.518Z,15.40
2022-10-16T18:16:32.217Z,15.43
2022-10-16T18:18:34.677Z,15.42
2022-10-16T18:20:37.045Z,15.37
2022-10-16T18:22:39.481Z,15.41
2022-10-16T18:24:41.866Z,15.30
2022-10-16T18:26:44.257Z,15.18
2022-10-16T18:28:51.192Z,15.23
2022-10-16T18:31:06.839Z,15.18
2022-10-16T18:33:09.300Z,15.26
2022-10-16T18:37:20.543Z,15.25
2022-10-16T18:39:24.278Z,15.23
2022-10-16T18:41:28.033Z,15.22
2022-10-16T18:43:31.718Z,15.13
2022-10-16T18:45:34.231Z,15.07
2022-10-16T18:47:36.829Z,15.02
2022-10-16T18:49:40.366Z,14.94
2022-10-16T18:51:43.625Z,14.92
2022-10-16T18:53:51.152Z,14.84
2022-10-16T18:55:54.117Z,14.90
2022-10-16T18:57:56.939Z,14.95
2022-10-16T18:59:59.371Z,14.97
2022-10-16T19:02:01.946Z,14.95
2022-10-16T19:04:07.741Z,14.78
2022-10-16T19:06:12.600Z,14.71
2022-10-16T19:08:15.911Z,14.62
2022-10-16T19:10:18.587Z,14.50
2022-10-16T19:12:22.319Z,14.29
2022-10-16T19:14:25.807Z,14.33
2022-10-16T19:16:34.096Z,14.38
2022-10-16T19:18:39.560Z,14.26
2022-10-16T19:20:42.636Z,14.16
2022-10-16T19:22:59.632Z,14.15
2022-10-16T19:25:04.535Z,14.13
2022-10-16T19:27:07.771Z,14.00
2022-10-16T19:29:11.325Z,14.01
2022-10-16T19:31:19.550Z,13.80
2022-10-16T19:33:32.018Z,13.53
2022-10-16T19:35:34.926Z,13.50
2022-10-16T19:37:37.448Z,13.69
2022-10-16T19:39:40.178Z,13.53
2022-10-16T19:41:43.080Z,13.53
2022-10-16T19:43:49.283Z,13.42
2022-10-16T19:46:04.627Z,13.27
2022-10-16T19:48:06.808Z,13.22
2022-10-16T19:50:16.963Z,13.08
2022-10-16T19:52:25.441Z,13.01
2022-10-16T19:54:29.710Z,13.09
2022-10-16T19:56:33.697Z,12.91
2022-10-16T19:58:37.848Z,12.83
2022-10-16T20:00:46.804Z,13.05
2022-10-16T20:02:49.092Z,12.90
2022-10-16T20:04:52.306Z,13.19
2022-10-16T20:09:01.212Z,13.11
2022-10-16T20:11:04.152Z,13.20
2022-10-16T20:13:08.398Z,13.31
2022-10-16T20:15:10.831Z,13.38
2022-10-16T20:17:14.199Z,13.32
2022-10-16T20:19:16.551Z,13.44
2022-10-16T20:21:24.728Z,13.52
2022-10-16T20:23:26.809Z,13.62
2022-10-16T20:25:28.675Z,13.63
2022-10-16T20:27:31.644Z,13.51
2022-10-16T20:29:33.584Z,13.47
2022-10-16T20:31:36.959Z,13.50
2022-10-16T20:33:38.932Z,13.63
2022-10-16T20:35:47.004Z,13.68
2022-10-16T20:37:51.016Z,13.57
2022-10-16T20:39:53.233Z,13.64
2022-10-16T20:41:55.176Z,13.70
2022-10-16T20:43:57.471Z,13.70
2022-10-16T20:46:05.619Z,13.73
2022-10-16T20:48:08.710Z,13.91
2022-10-16T20:50:10.809Z,14.07
2022-10-16T20:52:12.730Z,14.03
2022-10-16T20:54:14.666Z,14.03
2022-10-16T20:56:17.630Z,14.07
2022-10-16T20:58:20.023Z,14.09
2022-10-16T21:00:23.036Z,14.07
2022-10-16T21:02:25.216Z,14.00
2022-10-16T21:04:33.409Z,13.93
2022-10-16T21:06:38.194Z,13.82
2022-10-16T21:08:42.402Z,13.74
2022-10-16T21:10:44.270Z,13.79
2022-10-16T21:12:46.102Z,13.78
2022-10-16T21:15:13.027Z,13.73
2022-10-16T21:17:12.405Z,13.74
2022-10-16T21:19:14.317Z,13.72
2022-10-16T21:21:25.084Z,13.63
2022-10-16T21:23:27.327Z,13.51
2022-10-16T21:25:30.059Z,13.51
2022-10-16T21:27:40.323Z,13.44
2022-10-16T21:29:42.388Z,13.40
2022-10-16T21:31:44.314Z,13.33
2022-10-16T21:33:47.376Z,13.38
2022-10-16T21:35:49.279Z,13.20
2022-10-16T21:37:51.147Z,13.16
2022-10-16T21:39:56.584Z,12.91
2022-10-16T21:41:58.563Z,12.81
2022-10-16T21:44:02.387Z,12.66
2022-10-16T21:46:04.453Z,12.78
2022-10-16T21:48:06.509Z,12.76
2022-10-16T21:50:10.027Z,12.63
2022-10-16T21:52:12.346Z,12.41
2022-10-16T21:54:20.146Z,12.47
2022-10-16T21:56:23.421Z,12.64
2022-10-16T21:58:25.370Z,12.39
2022-10-16T22:00:27.332Z,12.57
2022-10-16T22:02:30.281Z,12.57
2022-10-16T22:04:32.237Z,12.69
2022-10-16T22:07:30.413Z,12.68
2022-10-16T22:09:32.463Z,12.59
2022-10-16T22:11:37.320Z,12.49
2022-10-16T22:13:40.150Z,12.47
2022-10-16T22:15:51.229Z,12.49
2022-10-16T22:17:53.169Z,12.39
2022-10-16T22:19:55.055Z,12.47
2022-10-16T22:21:57.481Z,12.36
2022-10-16T22:24:00.610Z,12.27
2022-10-16T22:26:06.739Z,12.41
2022-10-16T22:28:09.326Z,12.45
2022-10-16T22:30:12.363Z,12.37
2022-10-16T22:32:15.327Z,12.29
2022-10-16T22:34:18.253Z,12.48
2022-10-16T22:36:20.164Z,12.67
2022-10-16T22:38:23.126Z,12.56
2022-10-16T22:40:24.995Z,12.35
2022-10-16T22:42:26.846Z,12.14
2022-10-16T22:44:29.132Z,12.20
2022-10-16T22:46:31.869Z,12.10
2022-10-16T22:48:34.564Z,11.94
2022-10-16T22:50:36.389Z,11.67
2022-10-16T22:52:40.341Z,11.81
2022-10-16T22:54:42.204Z,11.75
2022-10-16T22:56:51.100Z,11.42
2022-10-16T22:58:53.993Z,11.30
2022-10-16T23:00:55.888Z,11.31
2022-10-16T23:02:57.815Z,11.42
2022-10-16T23:05:00.724Z,11.55
2022-10-16T23:07:02.562Z,11.82
2022-10-16T23:09:05.550Z,11.80
2022-10-16T23:11:09.433Z,11.80
2022-10-16T23:13:12.331Z,11.37
2022-10-16T23:15:14.335Z,11.34
2022-10-16T23:17:16.190Z,11.67
2022-10-16T23:19:18.123Z,11.79
2022-10-16T23:21:22.970Z,11.79
2022-10-16T23:23:24.926Z,11.82
2022-10-16T23:25:27.860Z,11.54
2022-10-16T23:27:30.771Z,11.39
2022-10-16T23:29:32.716Z,11.31
2022-10-16T23:31:34.687Z,10.77
2022-10-16T23:33:37.763Z,10.86
2022-10-16T23:35:40.924Z,10.79
2022-10-16T23:37:42.757Z,11.05
2022-10-16T23:39:44.639Z,11.05
2022-10-16T23:41:46.515Z,11.04
2022-10-16T23:43:48.715Z,11.26
2022-10-16T23:45:50.603Z,11.38
2022-10-16T23:47:52.484Z,11.50
2022-10-16T23:49:54.326Z,11.61
2022-10-16T23:51:56.224Z,11.66
2022-10-16T23:53:58.101Z,11.83
2022-10-16T23:56:00.245Z,11.87
2022-10-16T23:58:02.223Z,12.00
